Aplicació Alertes

Dades de l'estació automàtica Montserrat - Sant Dimes

?
?
Resum diari 22:30 TU
Dades diàries de l'estació meteorològica
Temperatura mitjana 3.8 °C
Temperatura màxima 6.4 °C 11:27 TU
Temperatura mínima 1.0 °C 4:15 TU
Humitat relativa mitjana 38%
Precipitació acumulada 0.0 mm
Ratxa màxima del vent (6 m) 53.3 km/h - 332º 5:38 TU
Irradiació solar global 8.7 MJ/m2

El tram horari està expressat en Temps Universal (TU). Cal sumar una hora en horari d'hivern i dues en horari d'estiu per passar a l'hora oficial.

Montserrat - Sant Dimes

Metadades estació meteorol´gica
Municipi Monistrol de Montserrat
Comarca Bages
Altitud 916 m
Data alta 02.01.2003
Estat actual Operativa
Dades de període
Període
TU
TM
°C
TX
°C
TN
°C
HRM
%
PPT
mm
VVM (6 m)
km/h
DVM (6 m)
graus
VVX (6 m)
km/h
RS
W/m2
00:00 - 00:30 2.4 2.5 2.2 40 0.0 14.8 317 38.5 0
00:30 - 01:00 2.4 2.5 2.2 41 0.0 11.9 337 39.2 0
01:00 - 01:30 2.3 2.4 2.2 39 0.0 14.4 331 43.9 0
01:30 - 02:00 2.4 2.4 2.3 39 0.0 16.2 342 43.2 0
02:00 - 02:30 2.2 2.3 1.9 40 0.0 14.4 344 37.8 0
02:30 - 03:00 2.1 2.2 1.9 41 0.0 25.6 348 47.5 0
03:00 - 03:30 1.8 2.0 1.6 42 0.0 26.3 349 50.8 0
03:30 - 04:00 1.5 1.6 1.4 45 0.0 29.2 350 50.8 0
04:00 - 04:30 1.2 1.5 1.0 47 0.0 21.6 348 43.6 0
04:30 - 05:00 1.7 1.9 1.2 41 0.0 36.4 346 51.8 0
05:00 - 05:30 1.9 2.3 1.7 39 0.0 34.9 346 52.2 0
05:30 - 06:00 2.4 2.6 2.1 33 0.0 34.9 344 53.3 0
06:00 - 06:30 2.2 2.4 2.1 33 0.0 27.7 348 41.8 0
06:30 - 07:00 2.0 2.3 1.8 35 0.0 26.3 343 37.8 0
07:00 - 07:30 2.3 2.4 2.1 33 0.0 19.4 338 29.9 9
07:30 - 08:00 2.3 2.5 2.1 33 0.0 19.4 342 32.0 58
08:00 - 08:30 2.3 2.5 2.1 34 0.0 22.7 348 31.7 131
08:30 - 09:00 2.2 2.5 2.1 34 0.0 20.2 344 31.7 208
09:00 - 09:30 2.6 3.2 2.4 34 0.0 18.4 333 33.8 279
09:30 - 10:00 3.3 3.7 3.0 32 0.0 15.8 317 26.6 342
10:00 - 10:30 3.7 4.6 3.0 33 0.0 15.5 308 29.2 392
10:30 - 11:00 4.9 5.9 4.3 30 0.0 10.4 303 28.4 429
11:00 - 11:30 5.8 6.4 4.5 29 0.0 6.5 236 19.8 452
11:30 - 12:00 4.7 5.4 4.0 32 0.0 11.2 310 22.0 463
12:00 - 12:30 4.7 5.2 4.4 33 0.0 13.0 320 29.9 457
12:30 - 13:00 5.1 5.3 4.9 36 0.0 11.5 313 29.9 436
13:00 - 13:30 4.8 5.3 4.4 37 0.0 11.9 323 37.1 400
13:30 - 14:00 5.3 5.6 4.9 34 0.0 13.0 327 37.1 351
14:00 - 14:30 5.1 5.5 5.0 33 0.0 16.2 317 42.5 292
14:30 - 15:00 5.7 5.9 5.3 33 0.0 15.8 319 45.0 138
15:00 - 15:30 5.8 6.0 5.7 32 0.0 14.8 311 40.3 38
15:30 - 16:00 5.5 5.8 5.0 33 0.0 14.0 332 41.8 17
16:00 - 16:30 5.2 5.5 4.8 35 0.0 11.9 343 36.7 6
16:30 - 17:00 5.6 5.7 5.4 35 0.0 14.0 345 42.8 0
17:00 - 17:30 5.6 5.8 5.3 35 0.0 15.5 336 43.9 0
17:30 - 18:00 5.5 5.7 5.3 36 0.0 14.8 327 45.4 0
18:00 - 18:30 5.2 5.4 5.1 38 0.0 14.0 332 36.0 0
18:30 - 19:00 5.3 5.4 5.2 40 0.0 13.3 337 42.1 0
19:00 - 19:30 4.8 5.1 4.5 43 0.0 15.1 324 41.4 0
19:30 - 20:00 4.5 4.5 4.3 46 0.0 13.0 331 37.4 0
20:00 - 20:30 4.5 4.6 4.2 47 0.0 10.4 324 31.3 0
20:30 - 21:00 4.4 4.9 4.1 47 0.0 16.9 331 40.3 0
21:00 - 21:30 4.8 4.9 4.7 46 0.0 18.0 338 37.4 0
21:30 - 22:00 5.0 5.2 4.8 44 0.0 24.8 342 37.1 0
22:00 - 22:30 4.9 5.1 4.7 45 0.0 24.8 338 35.3 0
22:30 - 23:00 4.7 5.0 4.3 46 0.0 20.5 338 33.5 0

Les dades en taronja només han passat un control de qualitat automàtic. Resta pendent la seva validació definitiva.